sensor_id;sensor_type;location;lat;lon;timestamp;P1;durP1;ratioP1;P2;durP2;ratioP2
42682;SDS011;28293;50.930;3.464;2022-12-16T00:02:20;146.38;;;95.75;;
42682;SDS011;28293;50.930;3.464;2022-12-16T00:04:48;148.85;;;99.20;;
42682;SDS011;28293;50.930;3.464;2022-12-16T00:07:14;146.27;;;102.22;;
42682;SDS011;28293;50.930;3.464;2022-12-16T00:09:39;148.18;;;99.40;;
42682;SDS011;28293;50.930;3.464;2022-12-16T00:12:05;146.20;;;98.45;;
42682;SDS011;28293;50.930;3.464;2022-12-16T00:14:33;142.48;;;97.25;;
42682;SDS011;28293;50.930;3.464;2022-12-16T00:16:59;151.93;;;102.22;;
42682;SDS011;28293;50.930;3.464;2022-12-16T00:19:24;154.13;;;103.75;;
42682;SDS011;28293;50.930;3.464;2022-12-16T00:21:50;148.35;;;98.78;;
42682;SDS011;28293;50.930;3.464;2022-12-16T00:24:18;153.65;;;102.93;;
42682;SDS011;28293;50.930;3.464;2022-12-16T00:26:43;148.80;;;98.75;;
42682;SDS011;28293;50.930;3.464;2022-12-16T00:29:11;150.15;;;99.97;;
42682;SDS011;28293;50.930;3.464;2022-12-16T00:31:37;140.07;;;98.57;;
42682;SDS011;28293;50.930;3.464;2022-12-16T00:34:05;142.75;;;96.10;;
42682;SDS011;28293;50.930;3.464;2022-12-16T00:36:31;141.63;;;97.13;;
42682;SDS011;28293;50.930;3.464;2022-12-16T00:38:57;147.35;;;96.22;;
42682;SDS011;28293;50.930;3.464;2022-12-16T00:41:23;148.38;;;98.03;;
42682;SDS011;28293;50.930;3.464;2022-12-16T00:43:51;154.43;;;100.65;;
42682;SDS011;28293;50.930;3.464;2022-12-16T00:46:16;136.68;;;90.38;;
42682;SDS011;28293;50.930;3.464;2022-12-16T00:48:42;129.80;;;83.18;;
42682;SDS011;28293;50.930;3.464;2022-12-16T00:51:10;133.13;;;86.43;;
42682;SDS011;28293;50.930;3.464;2022-12-16T00:53:36;127.05;;;84.07;;
42682;SDS011;28293;50.930;3.464;2022-12-16T00:56:08;125.75;;;83.93;;
42682;SDS011;28293;50.930;3.464;2022-12-16T00:58:44;116.47;;;80.80;;
42682;SDS011;28293;50.930;3.464;2022-12-16T01:01:10;121.32;;;77.70;;
42682;SDS011;28293;50.930;3.464;2022-12-16T01:03:35;117.07;;;79.70;;
42682;SDS011;28293;50.930;3.464;2022-12-16T01:06:12;110.50;;;74.97;;
42682;SDS011;28293;50.930;3.464;2022-12-16T01:08:40;117.10;;;79.03;;
42682;SDS011;28293;50.930;3.464;2022-12-16T01:11:12;116.43;;;76.00;;
42682;SDS011;28293;50.930;3.464;2022-12-16T01:13:41;114.13;;;76.80;;
42682;SDS011;28293;50.930;3.464;2022-12-16T01:16:07;116.43;;;76.30;;
42682;SDS011;28293;50.930;3.464;2022-12-16T01:18:32;118.60;;;78.85;;
42682;SDS011;28293;50.930;3.464;2022-12-16T01:21:02;92.38;;;61.25;;
42682;SDS011;28293;50.930;3.464;2022-12-16T01:23:35;100.25;;;66.43;;
42682;SDS011;28293;50.930;3.464;2022-12-16T01:26:02;104.07;;;69.65;;
42682;SDS011;28293;50.930;3.464;2022-12-16T01:28:30;101.85;;;65.15;;
42682;SDS011;28293;50.930;3.464;2022-12-16T01:30:57;103.60;;;69.22;;
42682;SDS011;28293;50.930;3.464;2022-12-16T01:33:32;97.95;;;70.15;;
42682;SDS011;28293;50.930;3.464;2022-12-16T01:35:58;100.40;;;64.65;;
42682;SDS011;28293;50.930;3.464;2022-12-16T01:38:29;95.28;;;66.10;;
42682;SDS011;28293;50.930;3.464;2022-12-16T01:40:57;112.80;;;73.35;;
42682;SDS011;28293;50.930;3.464;2022-12-16T01:43:25;123.32;;;81.57;;
42682;SDS011;28293;50.930;3.464;2022-12-16T01:45:53;122.03;;;78.25;;
42682;SDS011;28293;50.930;3.464;2022-12-16T01:53:51;119.32;;;79.00;;
42682;SDS011;28293;50.930;3.464;2022-12-16T01:56:28;110.68;;;76.57;;
42682;SDS011;28293;50.930;3.464;2022-12-16T01:58:55;115.40;;;78.97;;
42682;SDS011;28293;50.930;3.464;2022-12-16T02:01:22;120.25;;;81.05;;
42682;SDS011;28293;50.930;3.464;2022-12-16T02:03:50;119.07;;;82.05;;
42682;SDS011;28293;50.930;3.464;2022-12-16T02:06:18;113.95;;;78.45;;
42682;SDS011;28293;50.930;3.464;2022-12-16T02:08:43;111.85;;;75.70;;
42682;SDS011;28293;50.930;3.464;2022-12-16T02:11:20;114.55;;;77.53;;
42682;SDS011;28293;50.930;3.464;2022-12-16T02:34:18;100.78;;;69.38;;
42682;SDS011;28293;50.930;3.464;2022-12-16T02:39:41;94.40;;;66.07;;
42682;SDS011;28293;50.930;3.464;2022-12-16T02:42:20;91.15;;;63.72;;
42682;SDS011;28293;50.930;3.464;2022-12-16T02:45:14;90.70;;;64.05;;
42682;SDS011;28293;50.930;3.464;2022-12-16T02:47:51;99.25;;;65.90;;
42682;SDS011;28293;50.930;3.464;2022-12-16T02:52:48;96.10;;;64.55;;
42682;SDS011;28293;50.930;3.464;2022-12-16T02:55:28;99.45;;;67.82;;
42682;SDS011;28293;50.930;3.464;2022-12-16T02:58:20;101.82;;;66.90;;
42682;SDS011;28293;50.930;3.464;2022-12-16T03:03:59;94.25;;;62.05;;
42682;SDS011;28293;50.930;3.464;2022-12-16T03:06:48;83.53;;;58.88;;
42682;SDS011;28293;50.930;3.464;2022-12-16T03:09:20;86.00;;;57.15;;
42682;SDS011;28293;50.930;3.464;2022-12-16T03:11:56;77.63;;;53.00;;
42682;SDS011;28293;50.930;3.464;2022-12-16T03:14:24;73.63;;;49.78;;
42682;SDS011;28293;50.930;3.464;2022-12-16T03:16:55;76.07;;;52.20;;
42682;SDS011;28293;50.930;3.464;2022-12-16T03:19:27;71.50;;;48.10;;
42682;SDS011;28293;50.930;3.464;2022-12-16T03:21:59;72.57;;;48.13;;
42682;SDS011;28293;50.930;3.464;2022-12-16T03:24:45;69.28;;;46.72;;
42682;SDS011;28293;50.930;3.464;2022-12-16T03:30:01;70.45;;;46.65;;
42682;SDS011;28293;50.930;3.464;2022-12-16T03:32:35;75.47;;;51.05;;
42682;SDS011;28293;50.930;3.464;2022-12-16T03:38:12;61.70;;;41.65;;
42682;SDS011;28293;50.930;3.464;2022-12-16T03:40:40;65.75;;;45.28;;
42682;SDS011;28293;50.930;3.464;2022-12-16T03:43:07;50.95;;;30.38;;
42682;SDS011;28293;50.930;3.464;2022-12-16T03:45:38;46.67;;;31.35;;
42682;SDS011;28293;50.930;3.464;2022-12-16T03:48:09;40.13;;;28.38;;
42682;SDS011;28293;50.930;3.464;2022-12-16T03:50:36;43.30;;;28.75;;
42682;SDS011;28293;50.930;3.464;2022-12-16T03:53:02;39.97;;;27.17;;
42682;SDS011;28293;50.930;3.464;2022-12-16T03:55:28;41.95;;;28.05;;
42682;SDS011;28293;50.930;3.464;2022-12-16T03:57:54;46.08;;;30.25;;
42682;SDS011;28293;50.930;3.464;2022-12-16T04:00:21;64.97;;;44.35;;
42682;SDS011;28293;50.930;3.464;2022-12-16T04:02:46;64.05;;;45.65;;
42682;SDS011;28293;50.930;3.464;2022-12-16T04:05:15;62.45;;;42.42;;
42682;SDS011;28293;50.930;3.464;2022-12-16T04:07:41;51.17;;;36.72;;
42682;SDS011;28293;50.930;3.464;2022-12-16T04:10:09;68.82;;;45.92;;
42682;SDS011;28293;50.930;3.464;2022-12-16T04:12:36;61.88;;;42.33;;
42682;SDS011;28293;50.930;3.464;2022-12-16T04:15:28;68.53;;;45.10;;
42682;SDS011;28293;50.930;3.464;2022-12-16T04:18:13;70.30;;;48.20;;
42682;SDS011;28293;50.930;3.464;2022-12-16T04:21:01;68.10;;;44.55;;
42682;SDS011;28293;50.930;3.464;2022-12-16T04:23:47;62.15;;;41.85;;
42682;SDS011;28293;50.930;3.464;2022-12-16T04:26:35;52.42;;;35.05;;
42682;SDS011;28293;50.930;3.464;2022-12-16T04:29:21;54.70;;;34.20;;
42682;SDS011;28293;50.930;3.464;2022-12-16T04:31:49;49.35;;;32.55;;
42682;SDS011;28293;50.930;3.464;2022-12-16T04:34:18;45.70;;;30.92;;
42682;SDS011;28293;50.930;3.464;2022-12-16T04:36:53;46.55;;;31.67;;
42682;SDS011;28293;50.930;3.464;2022-12-16T04:39:46;41.47;;;28.40;;
42682;SDS011;28293;50.930;3.464;2022-12-16T04:42:30;53.13;;;34.05;;
42682;SDS011;28293;50.930;3.464;2022-12-16T04:45:15;54.15;;;34.47;;
42682;SDS011;28293;50.930;3.464;2022-12-16T04:48:09;51.70;;;31.95;;
42682;SDS011;28293;50.930;3.464;2022-12-16T04:50:55;44.78;;;32.40;;
42682;SDS011;28293;50.930;3.464;2022-12-16T04:53:39;40.47;;;27.83;;
42682;SDS011;28293;50.930;3.464;2022-12-16T04:56:26;43.88;;;29.27;;
42682;SDS011;28293;50.930;3.464;2022-12-16T04:59:10;41.03;;;29.95;;
42682;SDS011;28293;50.930;3.464;2022-12-16T05:02:00;38.92;;;27.52;;
42682;SDS011;28293;50.930;3.464;2022-12-16T05:04:44;37.58;;;26.08;;
42682;SDS011;28293;50.930;3.464;2022-12-16T05:07:30;39.63;;;26.48;;
42682;SDS011;28293;50.930;3.464;2022-12-16T05:10:15;39.00;;;26.87;;
42682;SDS011;28293;50.930;3.464;2022-12-16T05:12:59;41.97;;;27.33;;
42682;SDS011;28293;50.930;3.464;2022-12-16T05:15:43;42.17;;;29.00;;
42682;SDS011;28293;50.930;3.464;2022-12-16T05:18:30;45.92;;;27.65;;
42682;SDS011;28293;50.930;3.464;2022-12-16T05:21:30;40.92;;;27.35;;
42682;SDS011;28293;50.930;3.464;2022-12-16T05:24:17;47.03;;;32.40;;
42682;SDS011;28293;50.930;3.464;2022-12-16T05:27:04;47.63;;;31.83;;
42682;SDS011;28293;50.930;3.464;2022-12-16T05:29:51;48.85;;;31.15;;
42682;SDS011;28293;50.930;3.464;2022-12-16T05:32:35;46.63;;;29.95;;
42682;SDS011;28293;50.930;3.464;2022-12-16T05:35:19;36.70;;;25.37;;
42682;SDS011;28293;50.930;3.464;2022-12-16T05:38:03;38.83;;;26.45;;
42682;SDS011;28293;50.930;3.464;2022-12-16T05:40:50;41.38;;;27.75;;
42682;SDS011;28293;50.930;3.464;2022-12-16T05:43:34;38.80;;;26.73;;
42682;SDS011;28293;50.930;3.464;2022-12-16T05:46:19;36.22;;;24.63;;
42682;SDS011;28293;50.930;3.464;2022-12-16T05:49:13;34.80;;;24.50;;
42682;SDS011;28293;50.930;3.464;2022-12-16T05:52:02;38.50;;;24.85;;
42682;SDS011;28293;50.930;3.464;2022-12-16T05:54:57;38.17;;;25.42;;
42682;SDS011;28293;50.930;3.464;2022-12-16T05:57:47;41.95;;;27.10;;
42682;SDS011;28293;50.930;3.464;2022-12-16T06:00:32;49.10;;;30.70;;
42682;SDS011;28293;50.930;3.464;2022-12-16T06:03:17;62.38;;;38.58;;
42682;SDS011;28293;50.930;3.464;2022-12-16T06:06:04;63.53;;;40.85;;
42682;SDS011;28293;50.930;3.464;2022-12-16T06:08:48;65.83;;;43.73;;
42682;SDS011;28293;50.930;3.464;2022-12-16T06:11:32;60.45;;;39.42;;
42682;SDS011;28293;50.930;3.464;2022-12-16T06:14:18;70.80;;;41.70;;
42682;SDS011;28293;50.930;3.464;2022-12-16T06:17:02;60.97;;;40.40;;
42682;SDS011;28293;50.930;3.464;2022-12-16T06:19:49;62.30;;;42.73;;
42682;SDS011;28293;50.930;3.464;2022-12-16T06:22:33;65.38;;;43.67;;
42682;SDS011;28293;50.930;3.464;2022-12-16T06:25:20;64.10;;;42.00;;
42682;SDS011;28293;50.930;3.464;2022-12-16T06:28:04;61.35;;;42.53;;
42682;SDS011;28293;50.930;3.464;2022-12-16T06:30:51;62.90;;;41.17;;
42682;SDS011;28293;50.930;3.464;2022-12-16T06:33:37;61.93;;;40.53;;
42682;SDS011;28293;50.930;3.464;2022-12-16T06:36:24;62.72;;;40.53;;
42682;SDS011;28293;50.930;3.464;2022-12-16T06:39:08;54.45;;;38.45;;
42682;SDS011;28293;50.930;3.464;2022-12-16T06:41:52;70.80;;;40.47;;
42682;SDS011;28293;50.930;3.464;2022-12-16T06:44:37;59.47;;;39.40;;
42682;SDS011;28293;50.930;3.464;2022-12-16T06:47:21;65.00;;;42.20;;
42682;SDS011;28293;50.930;3.464;2022-12-16T06:50:07;56.85;;;39.78;;
42682;SDS011;28293;50.930;3.464;2022-12-16T06:52:54;63.30;;;40.70;;
42682;SDS011;28293;50.930;3.464;2022-12-16T06:55:38;63.88;;;39.83;;
42682;SDS011;28293;50.930;3.464;2022-12-16T06:58:25;55.70;;;36.15;;
42682;SDS011;28293;50.930;3.464;2022-12-16T07:01:17;53.10;;;38.40;;
42682;SDS011;28293;50.930;3.464;2022-12-16T07:04:01;53.88;;;35.35;;
42682;SDS011;28293;50.930;3.464;2022-12-16T07:06:45;49.53;;;33.13;;
42682;SDS011;28293;50.930;3.464;2022-12-16T07:09:30;51.78;;;31.45;;
42682;SDS011;28293;50.930;3.464;2022-12-16T07:12:14;45.50;;;31.30;;
42682;SDS011;28293;50.930;3.464;2022-12-16T07:15:00;39.45;;;29.80;;
42682;SDS011;28293;50.930;3.464;2022-12-16T07:17:47;49.13;;;32.35;;
42682;SDS011;28293;50.930;3.464;2022-12-16T07:20:33;58.10;;;38.13;;
42682;SDS011;28293;50.930;3.464;2022-12-16T07:23:20;69.47;;;40.63;;
42682;SDS011;28293;50.930;3.464;2022-12-16T07:26:04;73.95;;;43.28;;
42682;SDS011;28293;50.930;3.464;2022-12-16T07:28:49;63.80;;;38.97;;
42682;SDS011;28293;50.930;3.464;2022-12-16T07:31:38;56.03;;;35.60;;
42682;SDS011;28293;50.930;3.464;2022-12-16T07:34:22;42.92;;;29.45;;
42682;SDS011;28293;50.930;3.464;2022-12-16T07:37:09;47.40;;;30.77;;
42682;SDS011;28293;50.930;3.464;2022-12-16T07:39:53;43.20;;;28.42;;
42682;SDS011;28293;50.930;3.464;2022-12-16T07:42:41;42.50;;;26.95;;
42682;SDS011;28293;50.930;3.464;2022-12-16T07:45:25;39.95;;;25.55;;
42682;SDS011;28293;50.930;3.464;2022-12-16T07:48:12;35.53;;;23.25;;
42682;SDS011;28293;50.930;3.464;2022-12-16T07:50:59;41.40;;;26.45;;
42682;SDS011;28293;50.930;3.464;2022-12-16T07:53:43;42.30;;;27.90;;
42682;SDS011;28293;50.930;3.464;2022-12-16T07:56:27;41.47;;;25.97;;
42682;SDS011;28293;50.930;3.464;2022-12-16T07:59:12;36.38;;;24.50;;
42682;SDS011;28293;50.930;3.464;2022-12-16T08:01:56;33.00;;;23.97;;
42682;SDS011;28293;50.930;3.464;2022-12-16T08:04:40;34.80;;;22.95;;
42682;SDS011;28293;50.930;3.464;2022-12-16T08:07:25;34.13;;;22.97;;
42682;SDS011;28293;50.930;3.464;2022-12-16T08:10:14;32.28;;;21.00;;
42682;SDS011;28293;50.930;3.464;2022-12-16T08:13:01;30.77;;;21.25;;
42682;SDS011;28293;50.930;3.464;2022-12-16T08:15:48;32.88;;;22.65;;
42682;SDS011;28293;50.930;3.464;2022-12-16T08:18:32;35.35;;;23.15;;
42682;SDS011;28293;50.930;3.464;2022-12-16T08:21:16;39.73;;;24.33;;
42682;SDS011;28293;50.930;3.464;2022-12-16T08:24:03;55.55;;;37.25;;
42682;SDS011;28293;50.930;3.464;2022-12-16T08:26:48;73.88;;;45.95;;
42682;SDS011;28293;50.930;3.464;2022-12-16T08:29:32;75.03;;;47.37;;
42682;SDS011;28293;50.930;3.464;2022-12-16T08:32:16;73.97;;;47.47;;
42682;SDS011;28293;50.930;3.464;2022-12-16T08:35:01;76.60;;;49.78;;
42682;SDS011;28293;50.930;3.464;2022-12-16T08:37:45;80.85;;;49.03;;
42682;SDS011;28293;50.930;3.464;2022-12-16T08:40:32;70.25;;;45.72;;
42682;SDS011;28293;50.930;3.464;2022-12-16T08:43:19;66.97;;;44.90;;
42682;SDS011;28293;50.930;3.464;2022-12-16T08:46:06;68.65;;;43.75;;
42682;SDS011;28293;50.930;3.464;2022-12-16T08:48:50;66.15;;;44.83;;
42682;SDS011;28293;50.930;3.464;2022-12-16T08:51:37;72.07;;;48.30;;
42682;SDS011;28293;50.930;3.464;2022-12-16T08:54:21;71.22;;;48.65;;
42682;SDS011;28293;50.930;3.464;2022-12-16T08:57:19;64.80;;;43.72;;
42682;SDS011;28293;50.930;3.464;2022-12-16T09:00:09;61.35;;;45.22;;
42682;SDS011;28293;50.930;3.464;2022-12-16T09:02:54;52.28;;;38.65;;
42682;SDS011;28293;50.930;3.464;2022-12-16T09:05:55;52.88;;;37.33;;
42682;SDS011;28293;50.930;3.464;2022-12-16T09:08:41;51.92;;;37.88;;
42682;SDS011;28293;50.930;3.464;2022-12-16T09:11:27;48.42;;;35.05;;
42682;SDS011;28293;50.930;3.464;2022-12-16T09:14:14;51.13;;;35.42;;
42682;SDS011;28293;50.930;3.464;2022-12-16T09:17:00;46.42;;;34.03;;
42682;SDS011;28293;50.930;3.464;2022-12-16T09:19:52;48.42;;;31.92;;
42682;SDS011;28293;50.930;3.464;2022-12-16T09:22:36;39.97;;;28.35;;
42682;SDS011;28293;50.930;3.464;2022-12-16T09:25:20;47.00;;;34.15;;
42682;SDS011;28293;50.930;3.464;2022-12-16T09:28:04;34.75;;;25.67;;
42682;SDS011;28293;50.930;3.464;2022-12-16T09:30:49;34.00;;;23.80;;
42682;SDS011;28293;50.930;3.464;2022-12-16T09:33:35;48.13;;;30.17;;
42682;SDS011;28293;50.930;3.464;2022-12-16T09:36:19;43.83;;;31.05;;
42682;SDS011;28293;50.930;3.464;2022-12-16T09:39:04;37.83;;;27.45;;
42682;SDS011;28293;50.930;3.464;2022-12-16T09:45:10;45.70;;;32.60;;
42682;SDS011;28293;50.930;3.464;2022-12-16T09:51:36;46.88;;;34.17;;
42682;SDS011;28293;50.930;3.464;2022-12-16T09:54:26;44.50;;;33.20;;
42682;SDS011;28293;50.930;3.464;2022-12-16T09:57:12;40.33;;;31.50;;
42682;SDS011;28293;50.930;3.464;2022-12-16T10:02:46;41.08;;;29.40;;
42682;SDS011;28293;50.930;3.464;2022-12-16T10:05:55;35.72;;;28.42;;
42682;SDS011;28293;50.930;3.464;2022-12-16T10:08:45;34.38;;;27.98;;
42682;SDS011;28293;50.930;3.464;2022-12-16T10:11:52;38.45;;;26.63;;
42682;SDS011;28293;50.930;3.464;2022-12-16T10:18:28;35.22;;;27.70;;
42682;SDS011;28293;50.930;3.464;2022-12-16T10:21:27;35.15;;;25.77;;
42682;SDS011;28293;50.930;3.464;2022-12-16T10:27:22;36.65;;;27.00;;
42682;SDS011;28293;50.930;3.464;2022-12-16T10:30:29;38.55;;;28.10;;
42682;SDS011;28293;50.930;3.464;2022-12-16T10:33:15;29.50;;;21.33;;
42682;SDS011;28293;50.930;3.464;2022-12-16T10:36:05;25.48;;;18.75;;
42682;SDS011;28293;50.930;3.464;2022-12-16T10:38:57;29.40;;;21.75;;
42682;SDS011;28293;50.930;3.464;2022-12-16T10:41:45;26.73;;;19.17;;
42682;SDS011;28293;50.930;3.464;2022-12-16T10:44:34;26.50;;;17.08;;
42682;SDS011;28293;50.930;3.464;2022-12-16T10:47:32;24.25;;;16.83;;
42682;SDS011;28293;50.930;3.464;2022-12-16T10:50:19;26.42;;;16.13;;
42682;SDS011;28293;50.930;3.464;2022-12-16T10:53:10;23.33;;;15.73;;
42682;SDS011;28293;50.930;3.464;2022-12-16T10:59:22;23.05;;;14.00;;
42682;SDS011;28293;50.930;3.464;2022-12-16T11:02:18;20.73;;;12.27;;
42682;SDS011;28293;50.930;3.464;2022-12-16T11:05:27;19.63;;;11.52;;
42682;SDS011;28293;50.930;3.464;2022-12-16T11:08:38;21.13;;;13.43;;
42682;SDS011;28293;50.930;3.464;2022-12-16T11:11:25;26.17;;;15.15;;
42682;SDS011;28293;50.930;3.464;2022-12-16T11:14:14;19.23;;;13.00;;
42682;SDS011;28293;50.930;3.464;2022-12-16T11:17:14;20.40;;;11.10;;
42682;SDS011;28293;50.930;3.464;2022-12-16T11:20:25;18.20;;;10.52;;
42682;SDS011;28293;50.930;3.464;2022-12-16T11:23:23;16.03;;;11.37;;
42682;SDS011;28293;50.930;3.464;2022-12-16T11:26:18;20.52;;;10.70;;
42682;SDS011;28293;50.930;3.464;2022-12-16T11:29:03;22.05;;;11.60;;
42682;SDS011;28293;50.930;3.464;2022-12-16T11:32:03;20.95;;;13.13;;
42682;SDS011;28293;50.930;3.464;2022-12-16T11:35:14;22.75;;;14.27;;
42682;SDS011;28293;50.930;3.464;2022-12-16T11:38:03;20.50;;;12.55;;
42682;SDS011;28293;50.930;3.464;2022-12-16T11:40:54;20.02;;;11.60;;
42682;SDS011;28293;50.930;3.464;2022-12-16T11:43:43;16.85;;;10.23;;
42682;SDS011;28293;50.930;3.464;2022-12-16T11:46:32;20.65;;;10.32;;
42682;SDS011;28293;50.930;3.464;2022-12-16T11:49:48;18.60;;;9.65;;
42682;SDS011;28293;50.930;3.464;2022-12-16T11:52:34;15.68;;;9.50;;
42682;SDS011;28293;50.930;3.464;2022-12-16T11:55:27;17.25;;;9.93;;
42682;SDS011;28293;50.930;3.464;2022-12-16T11:58:25;15.50;;;9.85;;
42682;SDS011;28293;50.930;3.464;2022-12-16T12:01:26;20.50;;;9.27;;
42682;SDS011;28293;50.930;3.464;2022-12-16T12:04:14;19.88;;;9.88;;
42682;SDS011;28293;50.930;3.464;2022-12-16T12:07:00;19.03;;;10.07;;
42682;SDS011;28293;50.930;3.464;2022-12-16T12:13:14;15.15;;;9.57;;
42682;SDS011;28293;50.930;3.464;2022-12-16T12:16:08;16.77;;;9.10;;
42682;SDS011;28293;50.930;3.464;2022-12-16T12:19:20;17.65;;;9.13;;
42682;SDS011;28293;50.930;3.464;2022-12-16T12:22:21;15.02;;;8.90;;
42682;SDS011;28293;50.930;3.464;2022-12-16T12:28:46;18.70;;;8.88;;
42682;SDS011;28293;50.930;3.464;2022-12-16T12:31:39;19.90;;;9.57;;
42682;SDS011;28293;50.930;3.464;2022-12-16T12:34:35;13.98;;;9.05;;
42682;SDS011;28293;50.930;3.464;2022-12-16T12:37:25;16.38;;;8.18;;
42682;SDS011;28293;50.930;3.464;2022-12-16T12:49:32;13.73;;;8.70;;
42682;SDS011;28293;50.930;3.464;2022-12-16T12:55:45;17.13;;;8.85;;
42682;SDS011;28293;50.930;3.464;2022-12-16T12:58:34;14.82;;;8.35;;
42682;SDS011;28293;50.930;3.464;2022-12-16T13:01:20;14.85;;;7.65;;
42682;SDS011;28293;50.930;3.464;2022-12-16T13:04:12;16.77;;;9.52;;
42682;SDS011;28293;50.930;3.464;2022-12-16T13:06:59;19.63;;;8.90;;
42682;SDS011;28293;50.930;3.464;2022-12-16T13:09:48;11.80;;;8.27;;
42682;SDS011;28293;50.930;3.464;2022-12-16T13:13:39;13.57;;;8.43;;
42682;SDS011;28293;50.930;3.464;2022-12-16T13:16:13;15.65;;;8.00;;
42682;SDS011;28293;50.930;3.464;2022-12-16T13:28:35;14.95;;;7.82;;
42682;SDS011;28293;50.930;3.464;2022-12-16T13:31:24;22.35;;;8.40;;
42682;SDS011;28293;50.930;3.464;2022-12-16T13:36:59;15.45;;;7.90;;
42682;SDS011;28293;50.930;3.464;2022-12-16T13:43:02;17.08;;;7.75;;
42682;SDS011;28293;50.930;3.464;2022-12-16T13:48:47;12.63;;;6.82;;
42682;SDS011;28293;50.930;3.464;2022-12-16T13:51:55;11.73;;;6.90;;
42682;SDS011;28293;50.930;3.464;2022-12-16T13:54:51;13.13;;;7.03;;
42682;SDS011;28293;50.930;3.464;2022-12-16T13:57:44;15.43;;;7.65;;
42682;SDS011;28293;50.930;3.464;2022-12-16T14:00:58;16.23;;;9.82;;
42682;SDS011;28293;50.930;3.464;2022-12-16T14:03:48;15.10;;;7.93;;
42682;SDS011;28293;50.930;3.464;2022-12-16T14:06:38;14.70;;;7.53;;
42682;SDS011;28293;50.930;3.464;2022-12-16T14:09:25;14.40;;;7.65;;
42682;SDS011;28293;50.930;3.464;2022-12-16T14:16:16;14.05;;;7.30;;
42682;SDS011;28293;50.930;3.464;2022-12-16T14:22:01;16.42;;;8.63;;
42682;SDS011;28293;50.930;3.464;2022-12-16T14:25:11;18.13;;;8.48;;
42682;SDS011;28293;50.930;3.464;2022-12-16T14:28:00;13.35;;;7.05;;
42682;SDS011;28293;50.930;3.464;2022-12-16T14:31:13;17.13;;;7.15;;
42682;SDS011;28293;50.930;3.464;2022-12-16T14:37:36;15.35;;;7.55;;
42682;SDS011;28293;50.930;3.464;2022-12-16T14:40:23;14.38;;;8.05;;
42682;SDS011;28293;50.930;3.464;2022-12-16T14:43:11;13.35;;;7.82;;
42682;SDS011;28293;50.930;3.464;2022-12-16T14:49:11;14.38;;;7.97;;
42682;SDS011;28293;50.930;3.464;2022-12-16T14:52:16;15.20;;;7.97;;
42682;SDS011;28293;50.930;3.464;2022-12-16T14:55:18;13.02;;;7.80;;
42682;SDS011;28293;50.930;3.464;2022-12-16T14:58:11;15.02;;;8.15;;
42682;SDS011;28293;50.930;3.464;2022-12-16T15:00:56;15.77;;;8.13;;
42682;SDS011;28293;50.930;3.464;2022-12-16T15:03:44;21.65;;;10.55;;
42682;SDS011;28293;50.930;3.464;2022-12-16T15:06:37;14.88;;;7.82;;
42682;SDS011;28293;50.930;3.464;2022-12-16T15:09:29;13.77;;;7.70;;
42682;SDS011;28293;50.930;3.464;2022-12-16T15:15:08;14.45;;;6.72;;
42682;SDS011;28293;50.930;3.464;2022-12-16T15:17:57;11.82;;;6.72;;
42682;SDS011;28293;50.930;3.464;2022-12-16T15:20:49;13.40;;;7.22;;
42682;SDS011;28293;50.930;3.464;2022-12-16T15:23:40;13.43;;;7.57;;
42682;SDS011;28293;50.930;3.464;2022-12-16T15:26:27;13.65;;;7.85;;
42682;SDS011;28293;50.930;3.464;2022-12-16T15:29:33;14.20;;;7.80;;
42682;SDS011;28293;50.930;3.464;2022-12-16T15:35:22;15.57;;;10.20;;
42682;SDS011;28293;50.930;3.464;2022-12-16T15:40:57;16.02;;;10.98;;
42682;SDS011;28293;50.930;3.464;2022-12-16T15:43:44;14.77;;;10.63;;
42682;SDS011;28293;50.930;3.464;2022-12-16T15:46:29;18.65;;;10.82;;
42682;SDS011;28293;50.930;3.464;2022-12-16T15:52:19;14.88;;;9.90;;
42682;SDS011;28293;50.930;3.464;2022-12-16T15:55:34;17.00;;;10.73;;
42682;SDS011;28293;50.930;3.464;2022-12-16T15:58:29;14.88;;;9.45;;
42682;SDS011;28293;50.930;3.464;2022-12-16T16:01:22;14.38;;;8.23;;
42682;SDS011;28293;50.930;3.464;2022-12-16T16:04:20;13.90;;;8.43;;
42682;SDS011;28293;50.930;3.464;2022-12-16T16:07:26;16.48;;;8.32;;
42682;SDS011;28293;50.930;3.464;2022-12-16T16:10:16;14.05;;;8.23;;
42682;SDS011;28293;50.930;3.464;2022-12-16T16:13:26;14.60;;;8.15;;
42682;SDS011;28293;50.930;3.464;2022-12-16T16:16:13;14.82;;;8.93;;
42682;SDS011;28293;50.930;3.464;2022-12-16T16:18:58;15.85;;;8.68;;
42682;SDS011;28293;50.930;3.464;2022-12-16T16:21:43;15.05;;;8.98;;
42682;SDS011;28293;50.930;3.464;2022-12-16T16:24:27;16.33;;;9.35;;
42682;SDS011;28293;50.930;3.464;2022-12-16T16:27:12;19.55;;;10.77;;
42682;SDS011;28293;50.930;3.464;2022-12-16T16:30:00;19.65;;;11.60;;
42682;SDS011;28293;50.930;3.464;2022-12-16T16:32:45;34.58;;;20.83;;
42682;SDS011;28293;50.930;3.464;2022-12-16T16:35:30;25.23;;;16.30;;
42682;SDS011;28293;50.930;3.464;2022-12-16T16:38:15;24.52;;;15.68;;
42682;SDS011;28293;50.930;3.464;2022-12-16T16:40:59;24.87;;;15.67;;
42682;SDS011;28293;50.930;3.464;2022-12-16T16:43:43;26.87;;;16.43;;
42682;SDS011;28293;50.930;3.464;2022-12-16T16:46:37;27.58;;;15.75;;
42682;SDS011;28293;50.930;3.464;2022-12-16T16:52:23;22.40;;;13.98;;
42682;SDS011;28293;50.930;3.464;2022-12-16T16:55:14;22.33;;;15.40;;
42682;SDS011;28293;50.930;3.464;2022-12-16T16:58:04;23.63;;;17.25;;
42682;SDS011;28293;50.930;3.464;2022-12-16T17:01:15;27.27;;;17.35;;
42682;SDS011;28293;50.930;3.464;2022-12-16T17:04:00;25.25;;;18.35;;
42682;SDS011;28293;50.930;3.464;2022-12-16T17:06:47;30.98;;;21.35;;
42682;SDS011;28293;50.930;3.464;2022-12-16T17:09:32;32.25;;;21.77;;
42682;SDS011;28293;50.930;3.464;2022-12-16T17:12:20;38.10;;;25.07;;
42682;SDS011;28293;50.930;3.464;2022-12-16T17:15:13;29.02;;;20.80;;
42682;SDS011;28293;50.930;3.464;2022-12-16T17:18:04;34.10;;;23.05;;
42682;SDS011;28293;50.930;3.464;2022-12-16T17:20:49;46.55;;;29.50;;
42682;SDS011;28293;50.930;3.464;2022-12-16T17:23:36;48.38;;;29.45;;
42682;SDS011;28293;50.930;3.464;2022-12-16T17:26:28;52.17;;;33.95;;
42682;SDS011;28293;50.930;3.464;2022-12-16T17:29:25;55.13;;;37.03;;
42682;SDS011;28293;50.930;3.464;2022-12-16T17:32:09;68.72;;;39.50;;
42682;SDS011;28293;50.930;3.464;2022-12-16T17:34:57;55.88;;;37.75;;
42682;SDS011;28293;50.930;3.464;2022-12-16T17:37:46;53.70;;;38.33;;
42682;SDS011;28293;50.930;3.464;2022-12-16T17:40:31;62.40;;;40.70;;
42682;SDS011;28293;50.930;3.464;2022-12-16T17:43:17;58.22;;;40.70;;
42682;SDS011;28293;50.930;3.464;2022-12-16T17:46:03;54.90;;;40.43;;
42682;SDS011;28293;50.930;3.464;2022-12-16T17:48:54;56.75;;;40.15;;
42682;SDS011;28293;50.930;3.464;2022-12-16T17:51:40;55.78;;;38.92;;
42682;SDS011;28293;50.930;3.464;2022-12-16T17:54:25;62.60;;;41.88;;
42682;SDS011;28293;50.930;3.464;2022-12-16T17:57:12;57.03;;;41.20;;
42682;SDS011;28293;50.930;3.464;2022-12-16T17:59:56;58.47;;;39.08;;
42682;SDS011;28293;50.930;3.464;2022-12-16T18:02:45;69.55;;;49.08;;
42682;SDS011;28293;50.930;3.464;2022-12-16T18:05:32;65.13;;;47.78;;
42682;SDS011;28293;50.930;3.464;2022-12-16T18:08:24;64.10;;;45.78;;
42682;SDS011;28293;50.930;3.464;2022-12-16T18:11:16;56.53;;;41.28;;